Time;durP1;ratioP1;P1;durP2;ratioP2;P2;SDS_P1;SDS_P2;PMS_P1;PMS_P2;Temp;Humidity;BMP_temperature;BMP_pressure;BME280_temperature;BME280_humidity;BME280_pressure;Samples;Min_cycle;Max_cycle;Signal;HPM_P1;HPM_P2
2022/02/10 00:36:04;;;;;;;47.30;21.73;;;;;;;-1.52;100.00;96064.44;5049216;28;20106;-49
2022/02/10 00:38:36;;;;;;;37.97;19.63;;;;;;;-1.55;100.00;96068.06;5059355;28;20052;-48
2022/02/10 00:41:03;;;;;;;48.22;20.23;;;;;;;-1.72;100.00;96040.50;5050122;28;20049;-49
2022/02/10 00:43:30;;;;;;;42.78;20.63;;;;;;;-1.61;100.00;96067.75;5053690;28;20037;-48
2022/02/10 00:45:56;;;;;;;45.83;21.00;;;;;;;-1.60;100.00;96059.16;5050046;28;20041;-48
2022/02/10 00:48:24;;;;;;;39.20;17.60;;;;;;;-1.68;100.00;96061.50;5052985;28;20048;-48
2022/02/10 00:50:52;;;;;;;44.22;18.98;;;;;;;-1.65;100.00;96056.16;5051864;28;20098;-50
2022/02/10 00:53:24;;;;;;;46.50;22.52;;;;;;;-1.64;100.00;96057.75;5056955;28;20056;-51
2022/02/10 00:55:51;;;;;;;36.60;18.65;;;;;;;-1.70;100.00;96058.28;5049186;28;20079;-48
2022/02/10 00:58:31;;;;;;;34.58;16.52;;;;;;;-1.76;100.00;96057.84;5056743;28;20044;-49
2022/02/10 01:30:19;;;;;;;33.17;17.13;;;;;;;-2.26;100.00;96052.47;5056875;28;20102;-48
2022/02/10 01:32:52;;;;;;;31.83;14.65;;;;;;;-2.30;100.00;96053.66;5055265;28;20130;-47
2022/02/10 01:35:22;;;;;;;24.70;11.65;;;;;;;-2.35;100.00;96053.22;5055161;28;20048;-49
2022/02/10 01:37:50;;;;;;;24.88;13.95;;;;;;;-2.45;100.00;96044.66;5062149;28;20117;-48
2022/02/10 01:57:48;;;;;;;19.65;9.75;;;;;;;-2.60;100.00;96044.13;5049344;28;20044;-49
2022/02/10 02:05:53;;;;;;;28.23;13.88;;;;;;;-2.64;100.00;96028.25;5053587;28;20110;-53
2022/02/10 02:08:24;;;;;;;24.98;11.15;;;;;;;-2.65;100.00;96031.69;5056713;28;20067;-49
2022/02/10 02:10:51;;;;;;;21.83;10.73;;;;;;;-2.69;100.00;96031.13;5059310;28;20051;-50
2022/02/10 02:13:18;;;;;;;19.80;10.80;;;;;;;-2.67;100.00;96033.56;5054128;28;20526;-47
2022/02/10 02:15:45;;;;;;;21.88;10.80;;;;;;;-2.67;100.00;96028.47;5057464;28;20896;-48
2022/02/10 02:18:12;;;;;;;24.77;12.43;;;;;;;-2.69;100.00;96035.44;5055163;28;20099;-48
2022/02/10 02:20:39;;;;;;;27.27;12.43;;;;;;;-2.80;100.00;96032.91;5056043;28;20895;-50
2022/02/10 02:23:05;;;;;;;17.48;9.52;;;;;;;-2.86;100.00;96033.38;5058678;28;21127;-48
2022/02/10 02:25:32;;;;;;;22.67;10.10;;;;;;;-2.93;100.00;96038.94;5052095;28;20075;-48
2022/02/10 02:28:04;;;;;;;18.13;9.93;;;;;;;-2.95;100.00;96029.81;5057428;28;20865;-48
2022/02/10 02:30:37;;;;;;;19.90;10.43;;;;;;;-2.99;100.00;96029.22;5057984;28;20037;-49
2022/02/10 03:06:14;;;;;;;27.10;12.25;;;;;;;-3.13;100.00;96042.22;5055194;28;20040;-47
2022/02/10 03:08:46;;;;;;;21.63;10.32;;;;;;;-3.15;100.00;96033.84;5056379;28;20406;-48
2022/02/10 03:11:15;;;;;;;26.90;13.35;;;;;;;-3.15;100.00;96033.84;5054290;28;20049;-50
2022/02/10 03:13:52;;;;;;;26.35;13.00;;;;;;;-3.11;100.00;96042.91;5055460;28;20049;-48
2022/02/10 03:19:16;;;;;;;25.50;12.30;;;;;;;-3.15;100.00;96041.50;5055525;28;20177;-47
2022/02/10 03:22:21;;;;;;;26.98;11.40;;;;;;;-3.16;100.00;96042.44;5056447;28;20052;-49
2022/02/10 04:01:32;;;;;;;27.75;11.50;;;;;;;-3.27;100.00;96036.41;5054669;28;20068;-48
2022/02/10 04:06:58;;;;;;;22.35;10.45;;;;;;;-3.17;100.00;96030.63;5059437;28;20560;-52
2022/02/10 04:14:55;;;;;;;31.05;14.02;;;;;;;-3.17;100.00;96035.72;5060246;28;20056;-47
2022/02/10 04:22:41;;;;;;;28.77;12.38;;;;;;;-3.28;100.00;96033.97;5051689;28;20528;-51
2022/02/10 04:59:52;;;;;;;50.55;17.90;;;;;;;-3.25;100.00;96038.03;5052227;28;20080;-48
2022/02/10 05:03:10;;;;;;;42.13;14.15;;;;;;;-3.23;100.00;96041.28;5055203;28;20520;-48
2022/02/10 05:33:17;;;;;;;63.40;24.38;;;;;;;-3.23;100.00;96051.47;5056082;28;20052;-47
2022/02/10 05:35:50;;;;;;;74.88;30.10;;;;;;;-3.12;100.00;96062.47;5052380;28;20104;-50
2022/02/10 05:38:26;;;;;;;82.95;32.30;;;;;;;-3.05;100.00;96055.19;5059000;28;20044;-48
2022/02/10 05:46:40;;;;;;;77.78;32.72;;;;;;;-2.90;100.00;96069.31;5045212;28;20098;-49
2022/02/10 05:55:27;;;;;;;67.55;30.27;;;;;;;-2.84;100.00;96077.44;5054700;28;20526;-51
2022/02/10 07:11:09;;;;;;;;;;;;;;;0.45;100.00;96101.44;5055345;28;20572;-47
2022/02/10 07:49:09;;;;;;;56.10;22.00;;;;;;;1.68;100.00;96087.63;5053331;28;20044;-50
2022/02/10 08:27:53;;;;;;;29.08;12.07;;;;;;;2.70;100.00;96085.59;5047223;28;19948;-51
2022/02/10 08:57:12;;;;;;;42.30;17.88;;;;;;;3.75;100.00;96095.75;5054186;28;20045;-49
2022/02/10 09:56:26;;;;;;;40.72;17.42;;;;;;;5.76;97.32;96060.63;5053072;28;20052;-52
2022/02/10 10:00:03;;;;;;;33.67;14.48;;;;;;;5.85;98.81;96054.44;5051376;28;20503;-49
2022/02/10 10:02:03;;;;;;;25.35;13.52;;;;;;;5.89;96.98;96060.88;5045128;28;20045;-51
2022/02/10 10:04:42;;;;;;;35.17;14.80;;;;;;;5.83;97.28;96055.56;5057951;28;20571;-49
2022/02/10 10:10:27;;;;;;;37.22;15.75;;;;;;;6.31;97.05;96058.84;5049999;28;20400;-52
2022/02/10 10:57:34;;;;;;;23.27;12.65;;;;;;;8.86;85.91;95965.53;5047049;28;20065;-50
2022/02/10 11:00:26;;;;;;;22.10;11.95;;;;;;;9.19;83.51;95980.47;5045145;28;20049;-50
2022/02/10 11:39:56;;;;;;;17.45;10.45;;;;;;;9.85;80.57;95924.41;5046304;28;20037;-51
2022/02/10 11:42:52;;;;;;;24.15;9.18;;;;;;;10.14;78.59;95921.44;5050351;28;20056;-53
2022/02/10 11:46:06;;;;;;;18.00;9.98;;;;;;;10.33;77.46;95909.44;5049459;28;20102;-51
2022/02/10 13:26:20;;;;;;;14.38;8.50;;;;;;;19.78;40.83;95848.22;5052656;28;20049;-48
2022/02/10 14:11:25;;;;;;;12.02;7.40;;;;;;;22.67;32.18;95836.63;5046513;28;20060;-46
2022/02/10 14:18:24;;;;;;;19.08;11.60;;;;;;;22.60;31.99;95838.84;5047969;28;20049;-47
2022/02/10 14:21:07;;;;;;;10.73;7.35;;;;;;;22.92;30.84;95824.09;5050066;28;20503;-49
2022/02/10 14:26:20;;;;;;;22.05;12.15;;;;;;;23.04;31.22;95821.84;5051904;28;20452;-47
2022/02/10 14:28:47;;;;;;;20.60;13.33;;;;;;;23.36;31.42;95824.88;5051288;28;20102;-49
2022/02/10 14:31:15;;;;;;;16.60;10.40;;;;;;;23.37;30.35;95819.28;5049183;28;21068;-47
2022/02/10 14:33:43;;;;;;;18.60;12.68;;;;;;;23.57;30.42;95812.06;5049236;28;20054;-52
2022/02/10 14:36:16;;;;;;;19.17;11.00;;;;;;;23.67;29.74;95814.56;5046227;28;20049;-50
2022/02/10 15:52:30;;;;;;;23.65;10.75;;;;;;;13.13;52.93;95786.44;5048902;28;20075;-51
2022/02/10 16:10:59;;;;;;;24.88;13.27;;;;;;;10.22;65.54;95777.22;5044237;28;20099;-49
2022/02/10 16:18:46;;;;;;;24.02;12.13;;;;;;;9.42;69.11;95755.72;5049248;28;20060;-53
2022/02/10 16:21:18;;;;;;;26.38;12.55;;;;;;;9.27;70.21;95767.13;5048257;28;20068;-52
2022/02/10 16:23:47;;;;;;;29.38;14.88;;;;;;;9.06;70.76;95764.75;5050053;28;20053;-50
2022/02/10 16:26:17;;;;;;;30.65;14.98;;;;;;;8.84;71.67;95780.50;5045704;28;20141;-50
2022/02/10 16:28:44;;;;;;;35.45;16.08;;;;;;;8.69;72.35;95777.22;5048786;28;20060;-51
2022/02/10 16:31:15;;;;;;;33.88;16.42;;;;;;;8.51;73.29;95775.97;5052713;28;20473;-49
2022/02/10 16:33:48;;;;;;;37.50;16.42;;;;;;;8.33;73.89;95773.06;5050274;28;20056;-48
2022/02/10 16:36:22;;;;;;;34.00;16.48;;;;;;;8.19;74.39;95778.22;5048845;28;20048;-52
2022/02/10 16:38:54;;;;;;;46.13;20.45;;;;;;;8.01;75.30;95780.50;5047653;28;20040;-49
2022/02/10 16:41:27;;;;;;;43.05;18.92;;;;;;;7.82;76.18;95772.41;5048302;28;20041;-51
2022/02/10 16:43:59;;;;;;;40.10;18.67;;;;;;;7.71;76.68;95775.53;5046752;28;20061;-49
2022/02/10 16:46:32;;;;;;;38.67;18.48;;;;;;;7.60;77.27;95773.47;5047546;28;20041;-47
2022/02/10 16:49:04;;;;;;;60.13;23.80;;;;;;;7.41;78.17;95775.72;5048923;28;20058;-48
2022/02/10 16:51:38;;;;;;;57.50;24.90;;;;;;;7.20;79.58;95773.16;5046575;28;20124;-51
2022/02/10 16:54:20;;;;;;;58.50;27.17;;;;;;;6.99;80.74;95779.94;5046825;28;20122;-47
2022/02/10 16:59:47;;;;;;;59.20;28.30;;;;;;;6.40;82.02;95772.34;5055608;28;20052;-48
2022/02/10 17:02:46;;;;;;;80.03;35.42;;;;;;;6.11;84.17;95779.16;5055654;28;20055;-47
2022/02/10 17:27:31;;;;;;;66.13;29.00;;;;;;;5.26;92.56;95786.25;5029847;28;20053;-50
2022/02/10 17:33:15;;;;;;;38.83;19.52;;;;;;;5.06;94.29;95780.75;5049601;28;20060;-48
2022/02/10 17:52:14;;;;;;;45.42;22.00;;;;;;;4.52;97.71;95783.34;5055704;28;20075;-47
2022/02/10 17:54:43;;;;;;;44.42;22.05;;;;;;;4.46;98.36;95789.19;5052525;28;20453;-51
2022/02/10 17:57:10;;;;;;;53.97;22.23;;;;;;;4.38;99.12;95777.94;5050131;28;20052;-48
2022/02/10 17:59:36;;;;;;;118.35;52.72;;;;;;;4.35;99.39;95778.25;5055367;28;20048;-49
2022/02/10 18:02:04;;;;;;;71.68;36.38;;;;;;;4.37;99.08;95771.16;5052771;28;20053;-49
2022/02/10 18:04:31;;;;;;;52.60;22.02;;;;;;;4.35;98.75;95775.69;5055480;28;20458;-47
2022/02/10 18:06:58;;;;;;;51.78;23.85;;;;;;;4.29;98.39;95778.94;5055357;28;20048;-52
2022/02/10 18:13:05;;;;;;;77.70;32.25;;;;;;;4.07;100.00;95782.25;5056387;28;21382;-48
2022/02/10 18:15:30;;;;;;;58.22;24.77;;;;;;;4.04;100.00;95780.03;5052751;28;20058;-51
2022/02/10 18:18:10;;;;;;;56.47;24.38;;;;;;;3.91;100.00;95775.41;5049768;28;20484;-48
2022/02/10 18:20:41;;;;;;;46.35;21.83;;;;;;;3.88;100.00;95786.03;5053263;28;20064;-48
2022/02/10 18:25:48;;;;;;;67.90;33.45;;;;;;;3.82;100.00;95787.50;5056233;28;20082;-52
2022/02/10 18:28:50;;;;;;;83.45;40.22;;;;;;;3.73;100.00;95788.47;5055377;28;20064;-53
2022/02/10 19:07:03;;;;;;;46.75;23.70;;;;;;;2.31;100.00;95800.59;5056890;28;20041;-47
2022/02/10 19:09:41;;;;;;;35.70;19.42;;;;;;;2.32;100.00;95804.75;5056768;28;20037;-47
2022/02/10 19:12:16;;;;;;;42.67;19.42;;;;;;;2.33;100.00;95801.25;5059397;28;20040;-47
2022/02/10 19:14:52;;;;;;;51.65;20.88;;;;;;;2.33;100.00;95803.81;5054640;28;20045;-51
2022/02/10 19:17:23;;;;;;;39.42;20.45;;;;;;;2.30;100.00;95801.53;5054182;28;20048;-50
2022/02/10 19:19:50;;;;;;;42.38;20.27;;;;;;;2.26;100.00;95792.53;5051810;28;20044;-49
2022/02/10 19:22:21;;;;;;;38.30;19.10;;;;;;;2.26;100.00;95800.25;5047621;28;20052;-47
2022/02/10 19:24:48;;;;;;;81.15;29.52;;;;;;;2.16;100.00;95804.69;5048271;28;20132;-49
2022/02/10 19:27:16;;;;;;;64.95;31.65;;;;;;;2.05;100.00;95813.50;5051324;28;20037;-47
2022/02/10 19:29:44;;;;;;;147.30;54.85;;;;;;;2.01;100.00;95805.28;5055922;28;20044;-48
2022/02/10 19:32:16;;;;;;;186.07;62.25;;;;;;;2.12;100.00;95811.13;5053482;28;20068;-49
2022/02/10 19:34:46;;;;;;;187.18;65.68;;;;;;;2.09;100.00;95810.47;5047664;28;20037;-48
2022/02/10 19:37:20;;;;;;;238.52;86.95;;;;;;;1.93;100.00;95800.13;5059054;28;20083;-47
2022/02/10 19:39:57;;;;;;;130.57;50.85;;;;;;;1.94;100.00;95812.00;5054129;28;20478;-49
2022/02/10 19:42:27;;;;;;;123.93;48.85;;;;;;;1.88;100.00;95818.53;5045516;28;20063;-47
2022/02/10 19:44:57;;;;;;;88.05;40.92;;;;;;;1.87;100.00;95821.25;5046150;28;20056;-47
2022/02/10 19:47:24;;;;;;;82.05;36.97;;;;;;;1.86;100.00;95824.81;5048116;28;20060;-47
2022/02/10 19:49:50;;;;;;;75.05;35.92;;;;;;;1.82;100.00;95824.31;5051147;28;20064;-47
2022/02/10 19:52:18;;;;;;;77.60;37.60;;;;;;;1.82;100.00;95823.47;5050712;28;20095;-47
2022/02/10 19:54:49;;;;;;;78.45;37.03;;;;;;;1.85;100.00;95828.31;5051414;28;20494;-49
2022/02/10 19:57:18;;;;;;;84.00;38.95;;;;;;;1.81;100.00;95824.44;5055540;28;20048;-47
2022/02/10 19:59:45;;;;;;;87.05;39.78;;;;;;;1.78;100.00;95824.75;5050581;28;20102;-48
2022/02/10 20:02:13;;;;;;;96.30;46.63;;;;;;;1.58;100.00;95809.53;5050620;28;20037;-48
2022/02/10 20:04:42;;;;;;;119.05;54.25;;;;;;;1.55;100.00;95816.72;5055831;28;20509;-47
2022/02/10 20:07:11;;;;;;;90.53;43.67;;;;;;;1.52;100.00;95820.41;5052551;28;20123;-47
2022/02/10 20:09:38;;;;;;;63.22;31.67;;;;;;;1.40;100.00;95819.03;5053607;28;20052;-49
2022/02/10 20:12:05;;;;;;;65.65;29.75;;;;;;;1.33;100.00;95824.78;5049501;28;20441;-47
2022/02/10 20:14:32;;;;;;;60.90;29.13;;;;;;;1.28;100.00;95821.84;5048665;28;20068;-48
2022/02/10 20:16:59;;;;;;;54.55;26.83;;;;;;;1.13;100.00;95802.78;5049008;28;20348;-50
2022/02/10 20:19:26;;;;;;;53.53;27.10;;;;;;;1.21;100.00;95820.84;5043253;28;20040;-48
2022/02/10 20:21:52;;;;;;;54.25;24.27;;;;;;;1.18;100.00;95816.00;5047000;28;20037;-47
2022/02/10 20:24:19;;;;;;;50.22;22.33;;;;;;;1.17;100.00;95819.53;5051027;28;20048;-51
2022/02/10 20:26:46;;;;;;;45.70;22.75;;;;;;;1.14;100.00;95825.75;5048856;28;20044;-50
2022/02/10 20:29:16;;;;;;;44.83;20.52;;;;;;;1.09;100.00;95824.56;5047159;28;20055;-53
2022/02/10 20:31:44;;;;;;;91.20;45.13;;;;;;;1.09;100.00;95824.56;5051780;28;20106;-48
2022/02/10 20:34:13;;;;;;;52.88;25.83;;;;;;;1.04;100.00;95824.19;5055993;28;20040;-48
2022/02/10 20:36:41;;;;;;;51.53;18.95;;;;;;;0.91;100.00;95820.25;5047500;28;20060;-48
2022/02/10 20:39:08;;;;;;;39.60;19.77;;;;;;;0.89;100.00;95827.28;5045299;28;20044;-49
2022/02/10 20:41:36;;;;;;;47.83;21.60;;;;;;;0.85;100.00;95814.91;5047461;28;20033;-49
2022/02/10 20:44:04;;;;;;;46.53;21.67;;;;;;;0.90;100.00;95805.81;5046086;28;20045;-49
2022/02/10 20:46:38;;;;;;;44.65;20.38;;;;;;;0.82;100.00;95805.72;5047741;28;20044;-49
2022/02/10 20:49:12;;;;;;;55.78;23.65;;;;;;;0.83;100.00;95802.22;5049673;28;20118;-51
2022/02/10 20:51:38;;;;;;;55.63;24.55;;;;;;;0.80;100.00;95797.38;5053430;28;20041;-49
2022/02/10 20:54:05;;;;;;;45.28;20.85;;;;;;;0.80;100.00;95794.81;5048587;28;20052;-48
2022/02/10 20:56:32;;;;;;;36.78;19.00;;;;;;;0.82;100.00;95795.47;5049072;28;20091;-47
2022/02/10 20:59:07;;;;;;;34.78;17.02;;;;;;;0.77;100.00;95787.41;5051175;28;20053;-48
2022/02/10 21:01:34;;;;;;;;;;;;;;;0.80;100.00;95792.25;5050140;28;20048;-48
2022/02/10 21:04:03;;;;;;;41.67;16.58;;;;;;;0.71;100.00;95781.09;5048196;28;19967;-49
2022/02/10 21:09:02;;;;;;;45.25;23.48;;;;;;;0.81;100.00;95783.63;5047740;28;20056;-50
2022/02/10 21:11:29;;;;;;;50.95;24.02;;;;;;;0.72;100.00;95779.34;5051095;28;20052;-48
2022/02/10 21:14:02;;;;;;;41.38;21.40;;;;;;;0.69;100.00;95792.47;5049466;28;20506;-47
2022/02/10 21:16:29;;;;;;;46.60;21.02;;;;;;;0.66;100.00;95775.59;5052798;28;21663;-47
2022/02/10 21:18:56;;;;;;;53.97;25.52;;;;;;;0.65;100.00;95778.31;5047386;28;20053;-50
2022/02/10 21:21:24;;;;;;;47.05;22.60;;;;;;;0.62;100.00;95770.94;5045591;28;20126;-50
2022/02/10 21:23:57;;;;;;;46.17;21.42;;;;;;;0.55;100.00;95781.75;5046484;28;20526;-48
2022/02/10 21:26:30;;;;;;;65.03;25.52;;;;;;;0.48;100.00;95778.16;5048937;28;20051;-48
2022/02/10 21:29:01;;;;;;;47.83;22.77;;;;;;;0.42;100.00;95776.19;5044984;28;20033;-47
2022/02/10 21:31:28;;;;;;;50.70;25.17;;;;;;;0.46;100.00;95774.13;5045325;28;20033;-46
2022/02/10 21:34:09;;;;;;;53.83;26.15;;;;;;;0.47;100.00;95776.56;5049304;28;20060;-51
2022/02/10 22:21:43;;;;;;;28.73;13.38;;;;;;;0.12;100.00;95716.59;5053854;28;20487;-50
2022/02/10 22:24:13;;;;;;;29.83;13.70;;;;;;;0.11;100.00;95724.44;5050734;28;22215;-48
2022/02/10 22:26:42;;;;;;;22.42;12.02;;;;;;;0.08;100.00;95730.66;5049585;28;20048;-48
2022/02/10 22:29:18;;;;;;;17.40;9.65;;;;;;;0.07;100.00;95726.47;5055427;28;20223;-50
2022/02/10 22:31:58;;;;;;;21.67;9.30;;;;;;;0.04;100.00;95728.50;5053253;28;20452;-49
2022/02/10 22:36:58;;;;;;;28.88;13.57;;;;;;;-0.05;100.00;95720.75;5055933;28;20055;-48
2022/02/10 22:39:27;;;;;;;22.00;13.00;;;;;;;-0.22;100.00;95719.78;5053656;28;20068;-49
2022/02/10 22:41:56;;;;;;;44.08;17.15;;;;;;;-0.22;100.00;95709.53;5051566;28;20029;-50
2022/02/10 22:44:23;;;;;;;43.05;17.75;;;;;;;-0.13;100.00;95722.41;5057205;28;20060;-49
2022/02/10 22:46:50;;;;;;;41.25;20.75;;;;;;;-0.17;100.00;95727.00;5050409;28;20044;-49
2022/02/10 22:49:17;;;;;;;44.60;19.75;;;;;;;-0.23;100.00;95725.84;5049610;28;20065;-50
2022/02/10 22:51:44;;;;;;;42.55;21.08;;;;;;;-0.33;100.00;95717.38;5049393;28;20130;-49
2022/02/10 22:54:13;;;;;;;46.78;20.90;;;;;;;-0.34;100.00;95726.03;5058314;28;20045;-49
2022/02/10 22:56:43;;;;;;;40.70;19.63;;;;;;;-0.39;100.00;95723.06;5059701;28;20055;-52
2022/02/10 22:59:12;;;;;;;47.65;23.27;;;;;;;-0.40;100.00;95716.31;5050377;28;20036;-47
2022/02/10 23:01:40;;;;;;;58.53;26.83;;;;;;;-0.54;100.00;95698.88;5051740;28;20173;-53
2022/02/10 23:04:08;;;;;;;65.75;27.38;;;;;;;-0.47;100.00;95720.41;5057656;28;20052;-50
2022/02/10 23:06:36;;;;;;;56.65;26.73;;;;;;;-0.53;100.00;95715.84;5052942;28;20742;-50
2022/02/10 23:09:24;;;;;;;60.05;28.73;;;;;;;-0.53;100.00;95720.97;5055167;28;20052;-48
2022/02/10 23:11:51;;;;;;;74.05;33.85;;;;;;;-0.61;100.00;95708.88;5052380;28;20040;-48
2022/02/10 23:14:18;;;;;;;58.90;27.58;;;;;;;-0.58;100.00;95721.38;5053527;28;20061;-49
2022/02/10 23:16:47;;;;;;;57.95;26.55;;;;;;;-0.63;100.00;95716.69;5058159;28;20133;-51
2022/02/10 23:19:15;;;;;;;55.72;27.55;;;;;;;-0.66;100.00;95706.72;5051016;28;20072;-53
2022/02/10 23:21:42;;;;;;;54.05;25.08;;;;;;;-0.67;100.00;95707.66;5051253;28;20044;-50
2022/02/10 23:24:09;;;;;;;51.50;23.05;;;;;;;-0.70;100.00;95699.47;5051853;28;20098;-49
2022/02/10 23:26:36;;;;;;;55.63;26.23;;;;;;;-0.71;100.00;95692.75;5054050;28;20572;-51
2022/02/10 23:29:03;;;;;;;62.15;26.05;;;;;;;-0.72;100.00;95691.94;5053499;28;20037;-49
2022/02/10 23:31:30;;;;;;;53.35;23.95;;;;;;;-0.72;100.00;95702.19;5057549;28;20047;-52
2022/02/10 23:34:01;;;;;;;71.32;31.55;;;;;;;-0.62;100.00;95705.50;5054214;28;20673;-49
2022/02/10 23:39:15;;;;;;;69.57;31.02;;;;;;;-0.64;100.00;95689.47;5055327;28;20040;-49
2022/02/10 23:44:38;;;;;;;55.42;26.33;;;;;;;-0.73;100.00;95694.66;5057141;28;20049;-49
2022/02/10 23:47:04;;;;;;;61.40;26.35;;;;;;;-0.78;100.00;95687.38;5053004;28;20476;-48
2022/02/10 23:49:34;;;;;;;48.45;22.63;;;;;;;-0.88;100.00;95696.81;5056903;28;20116;-48
2022/02/10 23:52:04;;;;;;;38.25;17.17;;;;;;;-1.03;100.00;95692.13;5054460;28;20045;-48
2022/02/10 23:54:39;;;;;;;31.13;13.77;;;;;;;-1.13;100.00;95688.81;5055410;28;20044;-50
2022/02/10 23:59:51;;;;;;;36.63;16.90;;;;;;;-1.31;100.00;95688.69;5051071;28;20082;-49
